Time;durP1;ratioP1;P1;durP2;ratioP2;P2;SDS_P1;SDS_P2;PMS_P1;PMS_P2;Temp;Humidity;BMP_temperature;BMP_pressure;BME280_temperature;BME280_humidity;BME280_pressure;Samples;Min_cycle;Max_cycle;Signal;HPM_P1;HPM_P2
2024/01/10 00:00:27;;;;;;;2.80;1.60;;;;;;;-3.10;66.55;101218.77;105577;1255;61469;-67
2024/01/10 00:02:54;;;;;;;2.30;1.50;;;;;;;-3.10;66.49;101217.06;105543;1259;63133;-69
2024/01/10 00:05:21;;;;;;;2.00;1.10;;;;;;;-3.08;66.48;101210.34;105493;1254;59666;-69
2024/01/10 00:07:48;;;;;;;2.70;1.70;;;;;;;-3.07;66.45;101202.91;105521;1259;64026;-67
2024/01/10 00:10:15;;;;;;;2.50;1.60;;;;;;;-3.06;66.25;101199.28;105634;1260;59513;-68
2024/01/10 00:12:44;;;;;;;2.50;1.30;;;;;;;-3.07;66.42;101197.75;105734;1251;59763;-69
2024/01/10 00:15:12;;;;;;;2.10;1.40;;;;;;;-3.05;66.41;101199.45;105801;1252;64284;-69
2024/01/10 00:17:40;;;;;;;4.20;1.70;;;;;;;-3.04;66.39;101192.72;105829;1250;59660;-68
2024/01/10 00:20:08;;;;;;;3.10;1.70;;;;;;;-3.04;66.37;101199.27;107921;1255;63970;-67
2024/01/10 00:22:35;;;;;;;2.40;1.60;;;;;;;-3.03;66.40;101192.52;105670;1257;59550;-67
2024/01/10 00:25:02;;;;;;;2.40;1.70;;;;;;;-3.02;66.37;101187.00;105701;1254;59565;-68
2024/01/10 00:27:29;;;;;;;3.90;1.80;;;;;;;-3.03;66.28;101185.63;105718;1255;64465;-67
2024/01/10 00:29:57;;;;;;;2.90;1.70;;;;;;;-3.03;66.24;101187.36;105598;1255;59701;-69
2024/01/10 00:32:24;;;;;;;4.30;2.20;;;;;;;-3.07;66.03;101183.10;105709;1256;64153;-67
2024/01/10 00:34:51;;;;;;;3.00;2.00;;;;;;;-3.10;66.02;101180.87;105974;1252;59565;-67
2024/01/10 00:37:18;;;;;;;4.40;2.50;;;;;;;-3.10;65.97;101173.30;105769;1256;59733;-67
2024/01/10 00:39:45;;;;;;;3.70;2.50;;;;;;;-3.10;65.88;101172.78;107021;1252;64413;-68
2024/01/10 00:42:12;;;;;;;4.00;3.00;;;;;;;-3.12;65.76;101175.58;105660;1256;60204;-67
2024/01/10 00:44:39;;;;;;;4.90;2.80;;;;;;;-3.16;65.59;101167.70;106287;1256;64135;-68
2024/01/10 00:47:06;;;;;;;4.20;2.70;;;;;;;-3.20;65.56;101165.84;105919;1254;59817;-69
2024/01/10 00:49:33;;;;;;;4.00;2.40;;;;;;;-3.23;65.52;101162.42;106179;1251;61928;-67
2024/01/10 00:52:00;;;;;;;3.80;2.60;;;;;;;-3.24;65.45;101154.17;106533;1256;64422;-68
2024/01/10 00:54:27;;;;;;;5.90;3.00;;;;;;;-3.25;65.32;101144.37;105816;1257;59605;-69
2024/01/10 00:56:54;;;;;;;5.20;3.10;;;;;;;-3.26;65.20;101139.90;107645;1256;63330;-69
2024/01/10 00:59:20;;;;;;;6.40;2.90;;;;;;;-3.29;65.02;101132.52;105768;1256;59653;-68
2024/01/10 01:01:47;;;;;;;4.70;2.80;;;;;;;-3.32;64.92;101127.55;106148;1250;59724;-69
2024/01/10 01:04:14;;;;;;;5.00;3.10;;;;;;;-3.35;65.00;101121.39;106421;1256;64548;-69
2024/01/10 01:06:41;;;;;;;5.00;3.50;;;;;;;-3.36;64.99;101117.79;106215;1253;59729;-69
2024/01/10 01:09:07;;;;;;;4.30;3.20;;;;;;;-3.39;64.85;101113.33;106209;1255;63858;-68
2024/01/10 01:11:34;;;;;;;4.70;2.70;;;;;;;-3.41;64.70;101108.70;106901;1256;59619;-68
2024/01/10 01:14:01;;;;;;;5.30;3.60;;;;;;;-3.45;64.64;101106.52;106454;1255;59755;-69
2024/01/10 01:16:28;;;;;;;9.00;3.50;;;;;;;-3.47;64.54;101107.23;106250;1256;64457;-68
2024/01/10 01:18:55;;;;;;;4.70;3.20;;;;;;;-3.49;64.44;101095.86;106188;1251;59685;-69
2024/01/10 01:21:22;;;;;;;4.30;3.20;;;;;;;-3.51;64.32;101090.56;106572;1256;63707;-68
2024/01/10 01:23:48;;;;;;;4.90;2.90;;;;;;;-3.55;64.21;101085.45;106557;1256;59525;-68
2024/01/10 01:26:15;;;;;;;4.70;3.20;;;;;;;-3.60;64.06;101092.54;106130;1256;59612;-68
2024/01/10 01:28:42;;;;;;;3.70;2.60;;;;;;;-3.62;64.06;101091.88;105579;1256;64342;-67
2024/01/10 01:31:09;;;;;;;4.50;2.90;;;;;;;-3.66;64.04;101083.66;105697;1255;59605;-67
2024/01/10 01:33:36;;;;;;;4.40;2.90;;;;;;;-3.68;63.93;101077.12;106122;1252;64563;-67
2024/01/10 01:36:04;;;;;;;4.00;2.80;;;;;;;-3.71;63.87;101070.29;105456;1256;59711;-68
2024/01/10 01:38:30;;;;;;;4.90;2.70;;;;;;;-3.76;63.85;101070.16;105736;1254;60012;-69
2024/01/10 01:40:57;;;;;;;4.80;2.80;;;;;;;-3.78;63.83;101068.96;105731;1255;64416;-68
2024/01/10 01:43:25;;;;;;;4.20;2.60;;;;;;;-3.82;63.78;101063.34;106249;1255;59640;-70
2024/01/10 01:45:53;;;;;;;4.70;2.70;;;;;;;-3.86;63.84;101063.71;105431;1265;62512;-68
2024/01/10 01:48:21;;;;;;;5.40;3.00;;;;;;;-3.90;63.84;101060.48;106397;1256;59361;-68
2024/01/10 01:50:51;;;;;;;5.50;2.90;;;;;;;-3.91;63.75;101056.89;105626;1251;60330;-68
2024/01/10 01:53:18;;;;;;;4.40;2.70;;;;;;;-3.93;63.75;101055.89;105477;1252;64355;-67
2024/01/10 01:55:45;;;;;;;4.30;2.70;;;;;;;-3.95;63.73;101051.24;105689;1256;60258;-69
2024/01/10 01:58:12;;;;;;;4.50;2.60;;;;;;;-3.96;63.67;101049.86;105258;1254;62460;-68
2024/01/10 02:00:39;;;;;;;4.00;2.60;;;;;;;-3.99;63.57;101052.30;105662;1255;59504;-68
2024/01/10 02:03:10;;;;;;;4.40;2.80;;;;;;;-4.05;63.61;101048.05;105407;1254;59784;-67
2024/01/10 02:05:37;;;;;;;3.60;2.50;;;;;;;-4.08;63.67;101044.81;105676;1255;64867;-68
2024/01/10 02:08:04;;;;;;;3.70;2.70;;;;;;;-4.10;63.64;101034.34;105565;1256;59743;-70
2024/01/10 02:10:31;;;;;;;4.70;3.00;;;;;;;-4.13;63.55;101035.08;106080;1255;63014;-68
2024/01/10 02:12:58;;;;;;;4.50;2.80;;;;;;;-4.17;63.58;101033.72;105578;1255;59535;-67
2024/01/10 02:15:25;;;;;;;4.30;3.00;;;;;;;-4.20;63.60;101036.67;105414;1257;59747;-67
2024/01/10 02:17:52;;;;;;;4.80;3.00;;;;;;;-4.21;63.61;101036.50;105319;1254;64978;-68
2024/01/10 02:20:21;;;;;;;5.20;3.20;;;;;;;-4.20;63.70;101043.03;105846;1252;59504;-68
2024/01/10 02:22:50;;;;;;;6.30;3.20;;;;;;;-4.20;63.64;101042.52;105325;1251;62751;-67
2024/01/10 02:25:17;;;;;;;5.30;3.10;;;;;;;-4.22;63.71;101038.06;105629;1251;59971;-67
2024/01/10 02:27:44;;;;;;;6.30;3.50;;;;;;;-4.22;63.67;101038.75;106263;1251;59624;-68
2024/01/10 02:30:11;;;;;;;5.20;3.40;;;;;;;-4.24;63.64;101029.66;108371;1251;64921;-67
2024/01/10 02:32:39;;;;;;;6.20;3.80;;;;;;;-4.26;63.67;101027.59;105785;1251;59685;-67
2024/01/10 02:35:08;;;;;;;6.40;3.70;;;;;;;-4.29;63.60;101027.63;105674;1251;62750;-67
2024/01/10 02:37:35;;;;;;;6.50;3.80;;;;;;;-4.33;63.64;101025.43;105738;1257;59625;-67
2024/01/10 02:40:02;;;;;;;7.40;3.40;;;;;;;-4.35;63.71;101018.55;105499;1264;59563;-68
2024/01/10 02:42:31;;;;;;;5.30;3.50;;;;;;;-4.37;63.67;101012.38;106208;1254;64423;-67
2024/01/10 02:44:58;;;;;;;6.20;3.80;;;;;;;-4.41;63.66;101010.89;105616;1264;59742;-67
2024/01/10 02:47:25;;;;;;;7.00;4.00;;;;;;;-4.46;63.63;101012.30;105268;1258;63906;-68
2024/01/10 02:49:52;;;;;;;6.10;3.80;;;;;;;-4.49;63.64;101012.32;105758;1257;59659;-68
2024/01/10 02:52:19;;;;;;;4.80;3.60;;;;;;;-4.52;63.63;101006.86;105749;1252;59645;-67
2024/01/10 02:54:47;;;;;;;6.10;4.00;;;;;;;-4.55;63.66;101001.02;105784;1257;64483;-67
2024/01/10 02:57:14;;;;;;;7.50;4.40;;;;;;;-4.58;63.65;100998.81;105481;1251;59686;-68
2024/01/10 02:59:41;;;;;;;7.70;4.40;;;;;;;-4.62;63.65;100990.95;105714;1256;65452;-67
2024/01/10 03:02:08;;;;;;;8.00;4.70;;;;;;;-4.66;63.60;100982.02;105711;1251;59539;-67
2024/01/10 03:04:35;;;;;;;8.00;4.80;;;;;;;-4.70;63.62;100973.13;105401;1251;59826;-68
2024/01/10 03:07:03;;;;;;;9.50;5.20;;;;;;;-4.71;63.62;100968.67;106908;1251;73295;-68
2024/01/10 03:09:30;;;;;;;6.00;4.30;;;;;;;-4.74;63.63;100966.79;107599;1251;59497;-67
2024/01/10 03:11:56;;;;;;;10.30;5.00;;;;;;;-4.74;63.65;100966.27;106695;1255;62424;-68
2024/01/10 03:14:23;;;;;;;7.90;5.30;;;;;;;-4.76;63.57;100963.71;106863;1254;59795;-68
2024/01/10 03:16:50;;;;;;;8.30;5.20;;;;;;;-4.76;63.64;100961.64;105476;1251;59657;-69
2024/01/10 03:19:17;;;;;;;8.40;5.00;;;;;;;-4.76;63.58;100965.43;105720;1260;62945;-69
2024/01/10 03:21:44;;;;;;;8.20;5.10;;;;;;;-4.77;63.43;100968.02;106503;1250;59760;-68
2024/01/10 03:24:11;;;;;;;8.90;5.50;;;;;;;-4.77;63.42;100975.23;105386;1256;63974;-67
2024/01/10 03:26:38;;;;;;;8.40;5.40;;;;;;;-4.78;63.43;100973.20;105916;1251;60435;-67
2024/01/10 03:29:05;;;;;;;7.20;5.10;;;;;;;-4.81;63.42;100974.92;105490;1251;60904;-67
2024/01/10 03:31:32;;;;;;;9.20;5.60;;;;;;;-4.83;63.40;100972.54;105449;1261;65055;-67
2024/01/10 03:33:59;;;;;;;9.10;5.50;;;;;;;-4.87;63.36;100968.79;105723;1254;60602;-68
2024/01/10 03:36:27;;;;;;;8.40;5.30;;;;;;;-4.89;63.34;100971.89;108104;1253;64014;-69
2024/01/10 03:38:54;;;;;;;9.20;4.90;;;;;;;-4.91;63.33;100974.99;105488;1251;60523;-69
2024/01/10 03:41:21;;;;;;;8.50;5.50;;;;;;;-4.95;63.37;100971.23;105544;1251;60564;-68
2024/01/10 03:43:48;;;;;;;9.10;5.60;;;;;;;-4.98;63.45;100966.80;105497;1251;65056;-69
2024/01/10 03:46:16;;;;;;;9.00;5.50;;;;;;;-5.01;63.42;100965.96;106464;1251;60508;-68
2024/01/10 03:48:49;;;;;;;10.70;6.00;;;;;;;-5.03;63.44;100965.79;106195;1256;73205;-69
2024/01/10 03:51:17;;;;;;;9.10;5.50;;;;;;;-5.05;63.55;100964.95;105709;1251;60600;-68
2024/01/10 03:53:44;;;;;;;10.50;5.60;;;;;;;-5.06;63.60;100963.77;105883;1251;60412;-67
2024/01/10 03:56:12;;;;;;;8.20;5.20;;;;;;;-5.08;63.65;100962.73;106114;1257;65083;-67
2024/01/10 03:58:39;;;;;;;9.10;5.50;;;;;;;-5.09;63.69;100963.08;105192;1251;60515;-69
2024/01/10 04:01:07;;;;;;;9.20;5.50;;;;;;;-5.11;63.77;100961.90;105439;1256;64461;-68
2024/01/10 04:03:34;;;;;;;13.50;6.40;;;;;;;-5.12;63.85;100961.20;105475;1256;60541;-67
2024/01/10 04:06:02;;;;;;;9.00;6.20;;;;;;;-5.15;63.84;100954.36;105968;1251;61137;-68
2024/01/10 04:08:29;;;;;;;10.50;6.20;;;;;;;-5.17;63.97;100955.06;106238;1256;65167;-67
2024/01/10 04:10:57;;;;;;;9.70;5.80;;;;;;;-5.20;63.91;100954.73;105868;1253;60428;-68
2024/01/10 04:13:24;;;;;;;13.90;8.90;;;;;;;-5.23;64.10;100951.83;105582;1252;64741;-67
2024/01/10 04:15:52;;;;;;;17.90;11.30;;;;;;;-5.22;64.10;100952.34;105734;1254;60560;-67
2024/01/10 04:18:18;;;;;;;10.70;7.20;;;;;;;-5.23;64.09;100948.40;106209;1253;60495;-67
2024/01/10 04:20:47;;;;;;;10.20;6.30;;;;;;;-5.24;64.20;100946.51;105722;1251;64900;-69
2024/01/10 04:23:14;;;;;;;8.90;5.20;;;;;;;-5.25;64.32;100945.15;105329;1251;60459;-68
2024/01/10 04:25:41;;;;;;;11.40;6.40;;;;;;;-5.26;64.41;100941.39;106669;1251;64037;-67
2024/01/10 04:28:08;;;;;;;9.20;6.30;;;;;;;-5.26;64.42;100937.44;106131;1251;60432;-68
2024/01/10 04:30:35;;;;;;;10.30;6.00;;;;;;;-5.27;64.42;100931.95;106628;1251;60451;-68
2024/01/10 04:33:02;;;;;;;9.70;6.00;;;;;;;-5.26;64.49;100928.84;106344;1251;65240;-69
2024/01/10 04:35:29;;;;;;;10.10;6.30;;;;;;;-5.27;64.50;100926.11;106223;1251;60543;-69
2024/01/10 04:37:56;;;;;;;9.80;6.00;;;;;;;-5.28;64.64;100922.34;106120;1251;64501;-67
2024/01/10 04:40:23;;;;;;;10.90;6.50;;;;;;;-5.28;64.68;100928.19;107837;1251;59435;-67
2024/01/10 04:42:50;;;;;;;11.20;6.20;;;;;;;-5.29;64.68;100934.20;105681;1251;60474;-68
2024/01/10 04:45:17;;;;;;;11.00;6.50;;;;;;;-5.31;64.72;100931.80;107805;1251;65273;-68
2024/01/10 04:47:44;;;;;;;10.40;6.20;;;;;;;-5.31;64.88;100935.06;106323;1251;60582;-68
2024/01/10 04:50:11;;;;;;;9.20;6.10;;;;;;;-5.33;64.99;100932.48;107662;1251;64057;-67
2024/01/10 04:52:41;;;;;;;10.00;6.10;;;;;;;-5.34;65.08;100931.13;106131;1251;60404;-67
2024/01/10 04:55:08;;;;;;;8.80;5.80;;;;;;;-5.34;65.06;100928.55;105782;1256;60457;-68
2024/01/10 04:57:38;;;;;;;10.70;6.50;;;;;;;-5.32;65.15;100927.84;106869;1250;65093;-69
2024/01/10 05:00:08;;;;;;;9.00;5.50;;;;;;;-5.32;65.14;100933.67;107253;1251;61576;-68
2024/01/10 05:02:35;;;;;;;10.30;6.10;;;;;;;-5.33;65.19;100934.02;106298;1253;62514;-67
2024/01/10 05:05:04;;;;;;;8.80;5.80;;;;;;;-5.32;65.34;100933.85;105468;1251;60642;-67
2024/01/10 05:07:31;;;;;;;9.40;5.90;;;;;;;-5.31;65.42;100934.54;105572;1250;61066;-71
2024/01/10 05:09:58;;;;;;;9.10;6.00;;;;;;;-5.28;65.52;100928.36;106157;1251;63788;-69
2024/01/10 05:12:25;;;;;;;10.80;6.60;;;;;;;-5.25;65.60;100928.15;105917;1251;60547;-69
2024/01/10 05:14:52;;;;;;;8.60;5.70;;;;;;;-5.20;65.60;100927.44;105933;1251;63928;-70
2024/01/10 05:17:19;;;;;;;8.80;5.50;;;;;;;-5.16;65.52;100929.13;106127;1251;60466;-69
2024/01/10 05:19:45;;;;;;;13.00;6.00;;;;;;;-5.14;65.64;100932.38;106098;1252;60419;-69
2024/01/10 05:22:12;;;;;;;10.80;5.90;;;;;;;-5.11;65.68;100934.24;106130;1252;65001;-69
2024/01/10 05:24:39;;;;;;;9.40;6.10;;;;;;;-5.09;65.59;100934.59;106207;1251;60594;-69
2024/01/10 05:27:06;;;;;;;9.80;6.50;;;;;;;-5.08;65.76;100941.27;105938;1251;62580;-69
2024/01/10 05:29:33;;;;;;;10.70;6.90;;;;;;;-5.05;65.83;100943.48;106055;1251;60442;-70
2024/01/10 05:32:00;;;;;;;11.20;7.30;;;;;;;-5.01;65.84;100945.87;106161;1254;60364;-69
2024/01/10 05:34:27;;;;;;;11.90;7.00;;;;;;;-4.97;65.79;100952.54;105862;1256;65357;-70
2024/01/10 05:36:54;;;;;;;9.90;6.20;;;;;;;-4.93;65.85;100952.33;106005;1251;60436;-69
2024/01/10 05:39:21;;;;;;;10.30;6.90;;;;;;;-4.90;65.88;100959.70;106258;1251;65606;-70
2024/01/10 05:41:48;;;;;;;10.10;7.20;;;;;;;-4.87;65.93;100962.77;106129;1251;60362;-69
2024/01/10 05:44:15;;;;;;;10.00;6.80;;;;;;;-4.85;65.91;100964.80;106072;1251;60444;-68
2024/01/10 05:46:42;;;;;;;9.80;6.70;;;;;;;-4.82;65.89;100963.77;106152;1251;65254;-68
2024/01/10 05:49:10;;;;;;;10.60;6.70;;;;;;;-4.79;65.96;100966.84;105796;1251;60442;-68
2024/01/10 05:51:37;;;;;;;10.20;6.70;;;;;;;-4.75;65.92;100965.42;106094;1251;63996;-68
2024/01/10 05:54:04;;;;;;;11.00;7.40;;;;;;;-4.73;65.97;100964.55;106155;1254;60460;-68
2024/01/10 05:56:30;;;;;;;12.50;8.00;;;;;;;-4.72;65.96;100966.80;106101;1256;60302;-67
2024/01/10 05:58:57;;;;;;;10.90;6.70;;;;;;;-4.70;65.98;100966.59;105976;1256;64899;-68
2024/01/10 06:01:25;;;;;;;10.10;6.80;;;;;;;-4.66;66.01;100966.73;105937;1255;60764;-66
2024/01/10 06:03:52;;;;;;;12.40;7.40;;;;;;;-4.65;66.01;100971.70;105769;1250;64545;-67
2024/01/10 06:06:19;;;;;;;12.20;7.00;;;;;;;-4.65;66.05;100979.26;105709;1254;60539;-68
2024/01/10 06:08:46;;;;;;;9.70;6.70;;;;;;;-4.64;66.04;100972.56;105874;1251;60447;-66
2024/01/10 06:11:13;;;;;;;10.00;6.50;;;;;;;-4.62;66.05;100970.66;105788;1251;65292;-68
2024/01/10 06:13:40;;;;;;;10.70;6.60;;;;;;;-4.59;66.11;100965.64;105804;1251;60542;-68
2024/01/10 06:16:20;;;;;;;11.50;7.00;;;;;;;-4.55;66.12;100966.82;106062;1257;62550;-66
2024/01/10 06:18:48;;;;;;;10.10;6.60;;;;;;;-4.53;66.13;100966.81;106103;1251;60444;-68
2024/01/10 06:21:15;;;;;;;9.60;6.20;;;;;;;-4.52;66.10;100966.98;105558;1250;60448;-67
2024/01/10 06:23:42;;;;;;;10.30;6.80;;;;;;;-4.49;66.11;100967.13;105540;1254;65380;-69
2024/01/10 06:26:10;;;;;;;10.20;7.10;;;;;;;-4.47;66.10;100966.92;106087;1251;60439;-65
2024/01/10 06:28:38;;;;;;;9.70;6.70;;;;;;;-4.45;66.12;100965.17;105590;1257;64138;-66
2024/01/10 06:31:06;;;;;;;10.50;6.80;;;;;;;-4.44;66.11;100963.46;105512;1254;60507;-66
2024/01/10 06:33:36;;;;;;;10.00;6.70;;;;;;;-4.43;66.13;100967.08;105829;1251;60704;-69
2024/01/10 06:36:03;;;;;;;13.90;7.40;;;;;;;-4.43;66.20;100967.77;105568;1257;65770;-67
2024/01/10 06:38:30;;;;;;;10.80;7.50;;;;;;;-4.41;66.16;100969.63;105624;1251;60584;-68
2024/01/10 06:41:00;;;;;;;10.70;7.20;;;;;;;-4.40;66.29;100968.75;105861;1251;63910;-67
2024/01/10 06:43:27;;;;;;;11.30;7.50;;;;;;;-4.36;66.28;100965.11;105711;1251;60454;-68
2024/01/10 06:45:55;;;;;;;12.90;7.40;;;;;;;-4.31;66.28;100964.91;105729;1250;60723;-67
2024/01/10 06:48:21;;;;;;;18.90;10.70;;;;;;;-4.28;66.30;100965.20;106180;1256;66773;-69
2024/01/10 06:50:48;;;;;;;22.60;13.10;;;;;;;-4.25;66.37;100963.29;106134;1254;60532;-68
2024/01/10 06:53:15;;;;;;;20.80;15.40;;;;;;;-4.24;66.43;100962.42;105876;1254;65490;-69
2024/01/10 06:55:42;;;;;;;15.60;10.50;;;;;;;-4.21;66.44;100959.98;106028;1250;60540;-69
2024/01/10 06:58:46;;;;;;;12.40;8.50;;;;;;;-4.10;66.50;100963.83;102376;1295;604655;-68
2024/01/10 07:01:13;;;;;;;13.20;7.90;;;;;;;-4.06;66.51;100965.35;104796;1269;59617;-68
2024/01/10 07:03:41;;;;;;;10.60;7.30;;;;;;;-4.02;66.56;100963.23;104940;1267;59304;-68
2024/01/10 07:06:14;;;;;;;13.70;8.30;;;;;;;-4.00;66.58;100969.41;104915;1267;63983;-70
2024/01/10 07:08:42;;;;;;;11.90;8.00;;;;;;;-3.98;66.61;100967.49;105013;1269;59308;-68
2024/01/10 07:11:11;;;;;;;10.90;7.50;;;;;;;-3.95;66.54;100969.02;104725;1266;225929;-69
2024/01/10 07:13:38;;;;;;;10.90;7.40;;;;;;;-3.90;66.61;100972.58;104984;1262;59186;-68
2024/01/10 07:16:05;;;;;;;11.10;7.90;;;;;;;-3.87;66.69;100972.02;105296;1262;59649;-67
2024/01/10 07:18:32;;;;;;;9.20;6.50;;;;;;;-3.84;66.71;100969.59;105043;1265;63591;-68
2024/01/10 07:20:59;;;;;;;12.10;7.40;;;;;;;-3.83;66.75;100969.05;105122;1265;59266;-66
2024/01/10 07:23:26;;;;;;;11.40;7.50;;;;;;;-3.81;66.73;100965.41;105713;1264;64048;-67
2024/01/10 07:25:53;;;;;;;11.40;7.50;;;;;;;-3.78;66.73;100963.66;105086;1265;60167;-68
2024/01/10 07:28:20;;;;;;;9.70;6.70;;;;;;;-3.74;66.83;100963.46;105368;1262;59686;-67
2024/01/10 07:30:47;;;;;;;10.70;6.80;;;;;;;-3.72;66.76;100962.05;104873;1263;64621;-66
2024/01/10 07:33:15;;;;;;;9.70;6.20;;;;;;;-3.68;66.84;100964.59;104995;1262;59322;-67
2024/01/10 07:35:42;;;;;;;10.30;6.60;;;;;;;-3.65;66.81;100971.79;106428;1260;64076;-67
2024/01/10 07:38:09;;;;;;;10.60;6.20;;;;;;;-3.62;66.83;100972.26;107432;1261;59658;-67
2024/01/10 07:40:36;;;;;;;9.90;6.70;;;;;;;-3.59;66.81;100970.14;105392;1263;59702;-68
2024/01/10 07:43:04;;;;;;;11.10;6.50;;;;;;;-3.57;66.85;100966.70;105399;1263;64889;-67
2024/01/10 07:45:30;;;;;;;12.50;7.60;;;;;;;-3.53;66.87;100965.96;106625;1263;59664;-67
2024/01/10 07:47:57;;;;;;;9.70;6.50;;;;;;;-3.50;66.86;100960.40;104883;1262;63846;-66
2024/01/10 07:50:27;;;;;;;12.00;7.50;;;;;;;-3.47;67.03;100955.54;105140;1265;59693;-67
2024/01/10 07:52:55;;;;;;;10.90;7.20;;;;;;;-3.37;67.06;100954.20;105330;1265;59724;-66
2024/01/10 07:55:22;;;;;;;13.90;8.50;;;;;;;-3.31;67.03;100957.74;105243;1267;73427;-67
2024/01/10 07:57:49;;;;;;;13.40;8.10;;;;;;;-3.30;66.95;100953.25;104941;1265;59507;-66
2024/01/10 08:00:20;;;;;;;12.80;8.20;;;;;;;-3.28;67.02;100947.20;104974;1265;65776;-66
2024/01/10 08:02:49;;;;;;;13.30;8.30;;;;;;;-3.26;67.03;100950.28;104930;1265;59550;-67
2024/01/10 08:05:16;;;;;;;14.20;9.60;;;;;;;-3.24;67.09;100954.39;104899;1260;59655;-67
2024/01/10 08:07:43;;;;;;;13.20;8.30;;;;;;;-3.21;67.17;100962.95;105001;1264;65912;-66
2024/01/10 08:10:11;;;;;;;12.10;7.80;;;;;;;-3.17;67.18;100964.10;105008;1266;60476;-66
2024/01/10 08:12:44;;;;;;;12.40;7.90;;;;;;;-3.10;67.19;100971.07;104943;1262;63746;-65
2024/01/10 08:15:11;;;;;;;11.60;7.40;;;;;;;-3.05;67.24;100973.60;104914;1262;59564;-69
2024/01/10 08:17:38;;;;;;;11.90;7.30;;;;;;;-3.02;67.17;100969.56;105119;1261;59682;-68
2024/01/10 08:20:08;;;;;;;11.90;7.60;;;;;;;-3.00;67.12;100971.77;105790;1255;62940;-68
2024/01/10 08:22:35;;;;;;;12.00;7.60;;;;;;;-2.98;67.24;100974.69;106008;1253;59922;-69
2024/01/10 08:25:02;;;;;;;11.20;7.40;;;;;;;-2.93;67.21;100974.42;105919;1253;63757;-69
2024/01/10 08:27:29;;;;;;;11.10;7.30;;;;;;;-2.89;67.11;100976.80;105859;1254;59691;-66
2024/01/10 08:29:56;;;;;;;11.90;8.00;;;;;;;-2.88;67.13;100978.35;105154;1254;60727;-66
2024/01/10 08:32:23;;;;;;;13.60;9.20;;;;;;;-2.87;67.12;100975.06;105469;1257;64416;-66
2024/01/10 08:34:50;;;;;;;11.90;7.80;;;;;;;-2.84;67.12;100975.53;105669;1255;59746;-67
2024/01/10 08:37:17;;;;;;;12.20;8.00;;;;;;;-2.83;67.13;100971.55;105437;1255;64155;-68
2024/01/10 08:39:44;;;;;;;12.00;7.40;;;;;;;-2.81;67.19;100969.44;105312;1254;59761;-68
2024/01/10 08:42:11;;;;;;;12.10;8.30;;;;;;;-2.77;67.28;100970.25;105459;1253;59812;-68
2024/01/10 08:44:39;;;;;;;12.20;7.90;;;;;;;-2.73;67.26;100972.43;105235;1258;72152;-68
2024/01/10 08:47:06;;;;;;;11.10;7.60;;;;;;;-2.69;67.34;100972.20;105093;1262;59694;-68
2024/01/10 08:49:33;;;;;;;12.90;8.60;;;;;;;-2.66;67.16;100970.93;105542;1254;65877;-69
2024/01/10 08:52:00;;;;;;;11.20;8.10;;;;;;;-2.63;67.17;100974.67;105818;1254;59638;-70
2024/01/10 08:54:27;;;;;;;11.30;8.20;;;;;;;-2.62;67.23;100973.63;105714;1254;59724;-69
2024/01/10 08:56:54;;;;;;;13.10;8.50;;;;;;;-2.59;67.28;100971.35;105736;1260;64546;-69
2024/01/10 08:59:23;;;;;;;14.70;9.30;;;;;;;-2.54;67.26;100971.78;106203;1256;59617;-69
2024/01/10 09:01:52;;;;;;;13.10;8.80;;;;;;;-2.52;67.21;100968.30;105722;1258;64169;-69
2024/01/10 09:04:19;;;;;;;12.50;8.70;;;;;;;-2.52;67.22;100969.83;105404;1257;59861;-68
2024/01/10 09:06:47;;;;;;;11.10;8.00;;;;;;;-2.50;67.19;100965.52;105582;1254;59610;-67
2024/01/10 09:09:14;;;;;;;12.40;8.60;;;;;;;-2.47;67.22;100966.68;105554;1255;66122;-68
2024/01/10 09:11:41;;;;;;;11.10;7.80;;;;;;;-2.46;67.30;100966.13;106059;1255;59343;-67
2024/01/10 09:14:11;;;;;;;13.20;9.30;;;;;;;-2.43;67.26;100960.55;105554;1260;63887;-69
2024/01/10 09:16:38;;;;;;;13.50;8.60;;;;;;;-2.40;67.24;100963.27;105513;1257;59728;-68
2024/01/10 09:19:05;;;;;;;12.70;9.10;;;;;;;-2.35;67.19;100965.23;105757;1260;59656;-70
2024/01/10 09:21:36;;;;;;;14.40;9.50;;;;;;;-2.32;67.12;100967.10;105753;1260;66004;-69
2024/01/10 09:24:08;;;;;;;12.60;8.80;;;;;;;-2.28;67.14;100962.21;105891;1252;60488;-69
2024/01/10 09:26:53;;;;;;;15.00;9.30;;;;;;;-2.27;67.07;100959.09;105851;1254;66518;-69
2024/01/10 09:29:20;;;;;;;13.10;8.70;;;;;;;-2.28;67.09;100956.34;105836;1256;59650;-69
2024/01/10 09:31:47;;;;;;;11.30;8.50;;;;;;;-2.26;67.10;100951.81;105953;1258;59637;-69
2024/01/10 09:34:16;;;;;;;11.70;7.80;;;;;;;-2.25;67.08;100949.39;107761;1256;66275;-69
2024/01/10 09:36:43;;;;;;;12.60;8.90;;;;;;;-2.26;67.04;100949.07;105835;1259;59754;-68
2024/01/10 09:39:13;;;;;;;10.20;7.00;;;;;;;-2.30;67.07;100947.59;105488;1258;64673;-68
2024/01/10 09:41:44;;;;;;;12.00;8.10;;;;;;;-2.33;67.13;100945.89;105683;1254;61738;-67
2024/01/10 09:44:11;;;;;;;13.30;8.40;;;;;;;-2.27;67.24;100951.15;105757;1258;60739;-68
2024/01/10 09:46:39;;;;;;;12.80;8.50;;;;;;;-2.22;67.27;100951.41;105731;1254;73552;-69
2024/01/10 09:49:06;;;;;;;11.70;7.90;;;;;;;-2.18;67.28;100952.20;105700;1260;59685;-68
2024/01/10 09:51:34;;;;;;;11.90;7.80;;;;;;;-2.16;67.27;100952.85;105848;1254;65927;-69
2024/01/10 09:54:02;;;;;;;12.20;8.40;;;;;;;-2.16;67.19;100952.34;105848;1258;59812;-69
2024/01/10 09:56:30;;;;;;;12.60;8.20;;;;;;;-2.16;67.24;100947.84;105717;1254;59832;-68
2024/01/10 09:58:58;;;;;;;11.80;8.30;;;;;;;-2.18;67.17;100945.13;105671;1254;64586;-68
2024/01/10 10:01:25;;;;;;;11.80;8.00;;;;;;;-2.16;67.29;100944.73;105723;1254;59558;-69
2024/01/10 10:03:52;;;;;;;12.70;8.00;;;;;;;-2.12;67.38;100943.30;105721;1256;65697;-68
2024/01/10 10:06:20;;;;;;;11.60;7.80;;;;;;;-2.10;67.36;100944.12;105480;1254;60801;-68
2024/01/10 10:08:47;;;;;;;12.00;8.10;;;;;;;-2.08;67.40;100944.43;105850;1254;59612;-68
2024/01/10 10:11:14;;;;;;;11.60;8.10;;;;;;;-2.04;67.35;100939.34;105761;1254;65788;-68
2024/01/10 10:13:41;;;;;;;13.40;8.90;;;;;;;-2.01;67.38;100939.81;105164;1261;60583;-67
2024/01/10 10:16:12;;;;;;;10.90;8.50;;;;;;;-1.98;67.43;100939.59;105601;1258;66540;-70
2024/01/10 10:18:44;;;;;;;13.10;8.10;;;;;;;-1.94;67.41;100940.70;105643;1260;59639;-68
2024/01/10 10:21:15;;;;;;;15.30;9.00;;;;;;;-1.91;67.31;100939.63;105852;1253;59731;-69
2024/01/10 10:23:43;;;;;;;12.90;9.00;;;;;;;-1.89;67.34;100935.45;105621;1260;66078;-69
2024/01/10 10:26:14;;;;;;;11.30;9.00;;;;;;;-1.87;67.34;100932.98;105767;1260;60441;-69
2024/01/10 10:28:41;;;;;;;13.40;9.00;;;;;;;-1.85;67.36;100937.42;105726;1257;65676;-68
2024/01/10 10:31:08;;;;;;;14.40;9.70;;;;;;;-1.83;67.28;100938.08;105741;1255;61324;-68
2024/01/10 10:33:36;;;;;;;16.00;9.10;;;;;;;-1.85;67.23;100940.35;105845;1254;59524;-69
2024/01/10 10:36:03;;;;;;;13.50;9.60;;;;;;;-1.85;67.21;100944.83;105840;1254;65233;-68
2024/01/10 10:38:30;;;;;;;14.80;10.00;;;;;;;-1.82;67.28;100944.96;105706;1254;59660;-67
2024/01/10 10:40:58;;;;;;;13.20;9.20;;;;;;;-1.78;67.38;100949.55;105545;1254;65809;-69
2024/01/10 10:43:25;;;;;;;11.60;8.20;;;;;;;-1.74;67.35;100948.42;105608;1257;59731;-69
2024/01/10 10:45:52;;;;;;;13.00;8.70;;;;;;;-1.69;67.34;100953.69;105449;1254;59551;-68
2024/01/10 10:48:20;;;;;;;13.00;8.80;;;;;;;-1.66;67.33;100951.20;105360;1254;66766;-68
2024/01/10 10:51:03;;;;;;;12.00;8.50;;;;;;;-1.62;67.24;100952.86;106072;1256;59632;-68
2024/01/10 10:53:31;;;;;;;14.50;9.30;;;;;;;-1.61;67.18;100954.05;105273;1254;64072;-68
2024/01/10 10:55:58;;;;;;;12.60;8.60;;;;;;;-1.62;67.13;100954.41;105248;1254;59549;-70
2024/01/10 10:58:25;;;;;;;11.80;8.50;;;;;;;-1.65;67.12;100954.30;105952;1254;59724;-69
2024/01/10 11:00:52;;;;;;;13.50;9.30;;;;;;;-1.68;67.25;100960.05;105700;1254;65942;-68
2024/01/10 11:03:19;;;;;;;14.00;9.40;;;;;;;-1.66;67.33;100961.39;105476;1254;59877;-68
2024/01/10 11:05:46;;;;;;;14.60;9.70;;;;;;;-1.63;67.19;100963.60;105730;1256;64706;-69
2024/01/10 11:08:15;;;;;;;13.00;9.00;;;;;;;-1.59;67.33;100967.30;105708;1260;60973;-68
2024/01/10 11:10:42;;;;;;;14.40;9.00;;;;;;;-1.57;67.31;100964.67;105726;1254;60522;-67
2024/01/10 11:13:14;;;;;;;14.80;8.70;;;;;;;-1.56;67.30;100965.49;105386;1255;65710;-67